sensor_id;sensor_type;location;lat;lon;timestamp;temperature;humidity
11650;DHT22;5881;48.522;7.682;2023-11-21T00:02:21;9.30;99.90
11650;DHT22;5881;48.522;7.682;2023-11-21T00:04:51;9.20;99.90
11650;DHT22;5881;48.522;7.682;2023-11-21T00:07:17;9.30;99.90
11650;DHT22;5881;48.522;7.682;2023-11-21T00:09:43;9.20;1.00
11650;DHT22;5881;48.522;7.682;2023-11-21T00:12:08;9.30;99.90
11650;DHT22;5881;48.522;7.682;2023-11-21T00:14:37;9.20;99.90
11650;DHT22;5881;48.522;7.682;2023-11-21T00:17:04;9.20;1.00
11650;DHT22;5881;48.522;7.682;2023-11-21T00:19:31;9.20;99.90
11650;DHT22;5881;48.522;7.682;2023-11-21T00:21:56;9.20;1.00
11650;DHT22;5881;48.522;7.682;2023-11-21T00:24:24;9.30;99.90
11650;DHT22;5881;48.522;7.682;2023-11-21T00:26:50;9.20;99.90
11650;DHT22;5881;48.522;7.682;2023-11-21T00:29:16;9.20;1.00
11650;DHT22;5881;48.522;7.682;2023-11-21T00:31:43;9.30;1.00
11650;DHT22;5881;48.522;7.682;2023-11-21T00:34:11;9.30;99.90
11650;DHT22;5881;48.522;7.682;2023-11-21T00:36:37;9.30;99.90
11650;DHT22;5881;48.522;7.682;2023-11-21T00:39:03;9.30;99.90
11650;DHT22;5881;48.522;7.682;2023-11-21T00:41:28;9.30;99.90
11650;DHT22;5881;48.522;7.682;2023-11-21T00:43:54;9.30;99.90
11650;DHT22;5881;48.522;7.682;2023-11-21T00:46:21;9.30;99.90
11650;DHT22;5881;48.522;7.682;2023-11-21T00:48:46;9.20;1.00
11650;DHT22;5881;48.522;7.682;2023-11-21T00:51:12;9.20;1.00
11650;DHT22;5881;48.522;7.682;2023-11-21T00:53:38;9.20;1.00
11650;DHT22;5881;48.522;7.682;2023-11-21T00:56:03;9.20;1.00
11650;DHT22;5881;48.522;7.682;2023-11-21T00:58:29;9.20;1.00
11650;DHT22;5881;48.522;7.682;2023-11-21T01:00:55;9.10;99.80
11650;DHT22;5881;48.522;7.682;2023-11-21T01:03:21;9.10;99.90
11650;DHT22;5881;48.522;7.682;2023-11-21T01:05:47;9.10;99.90
11650;DHT22;5881;48.522;7.682;2023-11-21T01:08:15;9.10;1.00
11650;DHT22;5881;48.522;7.682;2023-11-21T01:10:40;9.10;1.00
11650;DHT22;5881;48.522;7.682;2023-11-21T01:13:06;9.10;1.00
11650;DHT22;5881;48.522;7.682;2023-11-21T01:15:33;9.10;1.00
11650;DHT22;5881;48.522;7.682;2023-11-21T01:17:59;9.20;33.60
11650;DHT22;5881;48.522;7.682;2023-11-21T01:20:25;9.10;1.00
11650;DHT22;5881;48.522;7.682;2023-11-21T01:22:50;9.10;1.00
11650;DHT22;5881;48.522;7.682;2023-11-21T01:25:16;9.10;1.00
11650;DHT22;5881;48.522;7.682;2023-11-21T01:27:42;9.00;1.00
11650;DHT22;5881;48.522;7.682;2023-11-21T01:30:09;9.10;1.00
11650;DHT22;5881;48.522;7.682;2023-11-21T01:32:38;9.10;1.00
11650;DHT22;5881;48.522;7.682;2023-11-21T01:35:05;9.10;1.00
11650;DHT22;5881;48.522;7.682;2023-11-21T01:37:32;9.10;1.00
11650;DHT22;5881;48.522;7.682;2023-11-21T01:39:58;9.10;99.90
11650;DHT22;5881;48.522;7.682;2023-11-21T01:42:24;9.10;1.00
11650;DHT22;5881;48.522;7.682;2023-11-21T01:44:50;9.10;1.00
11650;DHT22;5881;48.522;7.682;2023-11-21T01:47:16;9.10;1.00
11650;DHT22;5881;48.522;7.682;2023-11-21T01:49:44;9.10;1.00
11650;DHT22;5881;48.522;7.682;2023-11-21T01:52:11;9.10;99.90
11650;DHT22;5881;48.522;7.682;2023-11-21T01:54:37;9.10;1.00
11650;DHT22;5881;48.522;7.682;2023-11-21T01:57:04;9.10;1.00
11650;DHT22;5881;48.522;7.682;2023-11-21T01:59:37;9.00;1.00
11650;DHT22;5881;48.522;7.682;2023-11-21T02:02:04;9.00;1.00
11650;DHT22;5881;48.522;7.682;2023-11-21T02:04:35;9.00;1.00
11650;DHT22;5881;48.522;7.682;2023-11-21T02:07:02;9.00;1.00
11650;DHT22;5881;48.522;7.682;2023-11-21T02:09:31;9.10;1.00
11650;DHT22;5881;48.522;7.682;2023-11-21T02:11:58;9.10;1.00
11650;DHT22;5881;48.522;7.682;2023-11-21T02:14:25;9.00;99.90
11650;DHT22;5881;48.522;7.682;2023-11-21T02:16:52;9.00;6.10
11650;DHT22;5881;48.522;7.682;2023-11-21T02:19:20;9.00;98.50
11650;DHT22;5881;48.522;7.682;2023-11-21T02:21:50;8.90;44.20
11650;DHT22;5881;48.522;7.682;2023-11-21T02:24:21;8.90;1.00
11650;DHT22;5881;48.522;7.682;2023-11-21T02:26:48;8.90;1.00
11650;DHT22;5881;48.522;7.682;2023-11-21T02:29:14;8.90;99.90
11650;DHT22;5881;48.522;7.682;2023-11-21T02:31:43;8.80;1.00
11650;DHT22;5881;48.522;7.682;2023-11-21T02:34:17;8.70;99.90
11650;DHT22;5881;48.522;7.682;2023-11-21T02:36:44;8.80;1.00
11650;DHT22;5881;48.522;7.682;2023-11-21T02:39:10;8.80;1.00
11650;DHT22;5881;48.522;7.682;2023-11-21T02:41:37;8.80;1.00
11650;DHT22;5881;48.522;7.682;2023-11-21T02:44:04;8.80;1.00
11650;DHT22;5881;48.522;7.682;2023-11-21T02:46:32;8.80;1.00
11650;DHT22;5881;48.522;7.682;2023-11-21T02:48:59;8.80;1.00
11650;DHT22;5881;48.522;7.682;2023-11-21T02:51:25;8.80;31.20
11650;DHT22;5881;48.522;7.682;2023-11-21T02:53:51;8.80;56.00
11650;DHT22;5881;48.522;7.682;2023-11-21T02:56:16;8.80;73.50
11650;DHT22;5881;48.522;7.682;2023-11-21T02:58:44;8.70;84.60
11650;DHT22;5881;48.522;7.682;2023-11-21T03:01:10;8.70;92.00
11650;DHT22;5881;48.522;7.682;2023-11-21T03:03:39;8.60;96.20
11650;DHT22;5881;48.522;7.682;2023-11-21T03:06:08;8.60;97.30
11650;DHT22;5881;48.522;7.682;2023-11-21T03:08:34;8.60;94.20
11650;DHT22;5881;48.522;7.682;2023-11-21T03:11:00;8.70;92.50
11650;DHT22;5881;48.522;7.682;2023-11-21T03:13:25;8.60;93.70
11650;DHT22;5881;48.522;7.682;2023-11-21T03:15:51;8.70;94.30
11650;DHT22;5881;48.522;7.682;2023-11-21T03:18:17;8.70;94.90
11650;DHT22;5881;48.522;7.682;2023-11-21T03:20:43;8.60;93.70
11650;DHT22;5881;48.522;7.682;2023-11-21T03:23:11;8.60;90.50
11650;DHT22;5881;48.522;7.682;2023-11-21T03:25:37;8.50;88.10
11650;DHT22;5881;48.522;7.682;2023-11-21T03:28:03;8.60;90.50
11650;DHT22;5881;48.522;7.682;2023-11-21T03:30:29;8.50;91.70
11650;DHT22;5881;48.522;7.682;2023-11-21T03:32:54;8.60;86.00
11650;DHT22;5881;48.522;7.682;2023-11-21T03:35:20;8.60;89.70
11650;DHT22;5881;48.522;7.682;2023-11-21T03:37:46;8.50;91.20
11650;DHT22;5881;48.522;7.682;2023-11-21T03:40:12;8.50;90.90
11650;DHT22;5881;48.522;7.682;2023-11-21T03:42:38;8.50;93.60
11650;DHT22;5881;48.522;7.682;2023-11-21T03:45:05;8.50;94.20
11650;DHT22;5881;48.522;7.682;2023-11-21T03:47:31;8.50;91.20
11650;DHT22;5881;48.522;7.682;2023-11-21T03:49:56;8.50;77.70
11650;DHT22;5881;48.522;7.682;2023-11-21T03:52:22;8.60;58.10
11650;DHT22;5881;48.522;7.682;2023-11-21T03:54:48;8.60;63.80
11650;DHT22;5881;48.522;7.682;2023-11-21T03:57:13;8.60;54.70
11650;DHT22;5881;48.522;7.682;2023-11-21T03:59:43;8.50;39.40
11650;DHT22;5881;48.522;7.682;2023-11-21T04:02:08;8.50;42.20
11650;DHT22;5881;48.522;7.682;2023-11-21T04:04:35;8.50;45.70
11650;DHT22;5881;48.522;7.682;2023-11-21T04:07:00;8.60;49.60
11650;DHT22;5881;48.522;7.682;2023-11-21T04:09:26;8.50;54.00
11650;DHT22;5881;48.522;7.682;2023-11-21T04:11:52;8.50;58.40
11650;DHT22;5881;48.522;7.682;2023-11-21T04:14:18;8.50;52.10
11650;DHT22;5881;48.522;7.682;2023-11-21T04:16:44;8.50;28.80
11650;DHT22;5881;48.522;7.682;2023-11-21T04:19:10;8.60;27.40
11650;DHT22;5881;48.522;7.682;2023-11-21T04:21:36;8.50;28.90
11650;DHT22;5881;48.522;7.682;2023-11-21T04:24:02;8.40;28.70
11650;DHT22;5881;48.522;7.682;2023-11-21T04:26:28;8.50;30.10
11650;DHT22;5881;48.522;7.682;2023-11-21T04:28:54;8.60;38.60
11650;DHT22;5881;48.522;7.682;2023-11-21T04:31:19;8.50;40.90
11650;DHT22;5881;48.522;7.682;2023-11-21T04:33:45;8.50;41.80
11650;DHT22;5881;48.522;7.682;2023-11-21T04:36:10;8.50;61.00
11650;DHT22;5881;48.522;7.682;2023-11-21T04:38:36;8.50;67.90
11650;DHT22;5881;48.522;7.682;2023-11-21T04:41:01;8.50;86.10
11650;DHT22;5881;48.522;7.682;2023-11-21T04:43:27;8.50;99.10
11650;DHT22;5881;48.522;7.682;2023-11-21T04:45:54;8.40;99.90
11650;DHT22;5881;48.522;7.682;2023-11-21T04:48:20;8.50;99.90
11650;DHT22;5881;48.522;7.682;2023-11-21T04:50:46;8.40;99.90
11650;DHT22;5881;48.522;7.682;2023-11-21T04:53:11;8.40;99.90
11650;DHT22;5881;48.522;7.682;2023-11-21T04:55:40;8.40;99.90
11650;DHT22;5881;48.522;7.682;2023-11-21T04:58:06;8.40;99.90
11650;DHT22;5881;48.522;7.682;2023-11-21T05:00:31;8.40;99.90
11650;DHT22;5881;48.522;7.682;2023-11-21T05:02:57;8.40;99.90
11650;DHT22;5881;48.522;7.682;2023-11-21T05:05:23;8.40;99.90
11650;DHT22;5881;48.522;7.682;2023-11-21T05:07:49;8.40;99.90
11650;DHT22;5881;48.522;7.682;2023-11-21T05:10:15;8.40;99.90
11650;DHT22;5881;48.522;7.682;2023-11-21T05:12:41;8.40;99.90
11650;DHT22;5881;48.522;7.682;2023-11-21T05:15:08;8.40;99.90
11650;DHT22;5881;48.522;7.682;2023-11-21T05:17:38;8.40;99.90
11650;DHT22;5881;48.522;7.682;2023-11-21T05:20:15;8.40;99.90
11650;DHT22;5881;48.522;7.682;2023-11-21T05:22:50;8.30;99.90
11650;DHT22;5881;48.522;7.682;2023-11-21T05:25:16;8.40;99.90
11650;DHT22;5881;48.522;7.682;2023-11-21T05:27:44;8.30;99.90
11650;DHT22;5881;48.522;7.682;2023-11-21T05:30:10;8.30;99.90
11650;DHT22;5881;48.522;7.682;2023-11-21T05:32:37;8.30;99.90
11650;DHT22;5881;48.522;7.682;2023-11-21T05:35:04;8.30;99.90
11650;DHT22;5881;48.522;7.682;2023-11-21T05:37:35;8.30;99.90
11650;DHT22;5881;48.522;7.682;2023-11-21T05:40:01;8.30;99.90
11650;DHT22;5881;48.522;7.682;2023-11-21T05:42:31;8.30;99.90
11650;DHT22;5881;48.522;7.682;2023-11-21T05:44:57;8.30;99.90
11650;DHT22;5881;48.522;7.682;2023-11-21T05:47:25;8.30;99.90
11650;DHT22;5881;48.522;7.682;2023-11-21T05:49:53;8.40;99.90
11650;DHT22;5881;48.522;7.682;2023-11-21T05:52:19;8.30;99.90
11650;DHT22;5881;48.522;7.682;2023-11-21T05:54:46;8.30;99.90
11650;DHT22;5881;48.522;7.682;2023-11-21T05:57:11;8.40;99.90
11650;DHT22;5881;48.522;7.682;2023-11-21T05:59:37;8.30;99.90
11650;DHT22;5881;48.522;7.682;2023-11-21T06:02:02;8.40;99.90
11650;DHT22;5881;48.522;7.682;2023-11-21T06:04:28;8.30;99.90
11650;DHT22;5881;48.522;7.682;2023-11-21T06:06:54;8.40;99.90
11650;DHT22;5881;48.522;7.682;2023-11-21T06:09:20;8.40;99.90
11650;DHT22;5881;48.522;7.682;2023-11-21T06:11:46;8.40;99.90
11650;DHT22;5881;48.522;7.682;2023-11-21T06:14:11;8.40;99.90
11650;DHT22;5881;48.522;7.682;2023-11-21T06:16:37;8.40;99.90
11650;DHT22;5881;48.522;7.682;2023-11-21T06:19:03;8.40;99.90
11650;DHT22;5881;48.522;7.682;2023-11-21T06:21:28;8.40;99.90
11650;DHT22;5881;48.522;7.682;2023-11-21T06:23:54;8.40;99.90
11650;DHT22;5881;48.522;7.682;2023-11-21T06:26:22;8.40;99.90
11650;DHT22;5881;48.522;7.682;2023-11-21T06:28:48;8.40;99.90
11650;DHT22;5881;48.522;7.682;2023-11-21T06:31:16;8.40;99.90
11650;DHT22;5881;48.522;7.682;2023-11-21T06:33:43;8.40;99.90
11650;DHT22;5881;48.522;7.682;2023-11-21T06:36:09;8.40;99.90
11650;DHT22;5881;48.522;7.682;2023-11-21T06:38:37;8.40;99.90
11650;DHT22;5881;48.522;7.682;2023-11-21T06:41:02;8.40;99.90
11650;DHT22;5881;48.522;7.682;2023-11-21T06:43:29;8.40;99.90
11650;DHT22;5881;48.522;7.682;2023-11-21T06:45:57;8.40;99.90
11650;DHT22;5881;48.522;7.682;2023-11-21T06:48:22;8.40;99.90
11650;DHT22;5881;48.522;7.682;2023-11-21T06:50:48;8.40;99.90
11650;DHT22;5881;48.522;7.682;2023-11-21T06:53:14;8.50;99.90
11650;DHT22;5881;48.522;7.682;2023-11-21T06:55:40;8.50;99.90
11650;DHT22;5881;48.522;7.682;2023-11-21T06:58:05;8.50;99.90
11650;DHT22;5881;48.522;7.682;2023-11-21T07:00:31;8.40;99.90
11650;DHT22;5881;48.522;7.682;2023-11-21T07:02:56;8.40;99.90
11650;DHT22;5881;48.522;7.682;2023-11-21T07:05:22;8.40;99.90
11650;DHT22;5881;48.522;7.682;2023-11-21T07:07:49;8.50;99.90
11650;DHT22;5881;48.522;7.682;2023-11-21T07:10:15;8.50;99.90
11650;DHT22;5881;48.522;7.682;2023-11-21T07:12:41;8.40;99.90
11650;DHT22;5881;48.522;7.682;2023-11-21T07:15:07;8.40;99.90
11650;DHT22;5881;48.522;7.682;2023-11-21T07:17:35;8.40;99.90
11650;DHT22;5881;48.522;7.682;2023-11-21T07:20:02;8.40;99.90
11650;DHT22;5881;48.522;7.682;2023-11-21T07:22:28;8.40;99.90
11650;DHT22;5881;48.522;7.682;2023-11-21T07:24:54;8.40;99.90
11650;DHT22;5881;48.522;7.682;2023-11-21T07:27:21;8.50;99.90
11650;DHT22;5881;48.522;7.682;2023-11-21T07:29:47;8.50;99.90
11650;DHT22;5881;48.522;7.682;2023-11-21T07:32:14;8.40;99.90
11650;DHT22;5881;48.522;7.682;2023-11-21T07:34:40;8.40;99.90
11650;DHT22;5881;48.522;7.682;2023-11-21T07:37:07;8.40;99.90
11650;DHT22;5881;48.522;7.682;2023-11-21T07:39:34;8.40;99.90
11650;DHT22;5881;48.522;7.682;2023-11-21T07:42:01;8.40;99.90
11650;DHT22;5881;48.522;7.682;2023-11-21T07:44:27;8.40;99.90
11650;DHT22;5881;48.522;7.682;2023-11-21T07:46:53;8.40;99.90
11650;DHT22;5881;48.522;7.682;2023-11-21T07:49:23;8.30;99.90
11650;DHT22;5881;48.522;7.682;2023-11-21T07:51:49;8.30;99.90
11650;DHT22;5881;48.522;7.682;2023-11-21T07:54:14;8.20;99.90
11650;DHT22;5881;48.522;7.682;2023-11-21T07:56:41;8.30;99.90
11650;DHT22;5881;48.522;7.682;2023-11-21T07:59:07;8.30;99.90
11650;DHT22;5881;48.522;7.682;2023-11-21T08:01:33;8.30;99.90
11650;DHT22;5881;48.522;7.682;2023-11-21T08:03:59;8.30;99.90
11650;DHT22;5881;48.522;7.682;2023-11-21T08:06:31;8.30;99.90
11650;DHT22;5881;48.522;7.682;2023-11-21T08:08:58;8.30;99.90
11650;DHT22;5881;48.522;7.682;2023-11-21T08:11:23;8.30;99.90
11650;DHT22;5881;48.522;7.682;2023-11-21T08:13:49;8.40;99.90
11650;DHT22;5881;48.522;7.682;2023-11-21T08:16:15;8.40;99.90
11650;DHT22;5881;48.522;7.682;2023-11-21T08:18:42;8.40;99.90
11650;DHT22;5881;48.522;7.682;2023-11-21T08:21:07;8.40;99.90
11650;DHT22;5881;48.522;7.682;2023-11-21T08:23:33;8.40;99.90
11650;DHT22;5881;48.522;7.682;2023-11-21T08:25:59;8.40;99.90
11650;DHT22;5881;48.522;7.682;2023-11-21T08:28:25;8.40;99.90
11650;DHT22;5881;48.522;7.682;2023-11-21T08:30:53;8.50;99.90
11650;DHT22;5881;48.522;7.682;2023-11-21T08:33:22;8.60;99.90
11650;DHT22;5881;48.522;7.682;2023-11-21T08:35:48;8.60;99.90
11650;DHT22;5881;48.522;7.682;2023-11-21T08:38:14;8.40;99.90
11650;DHT22;5881;48.522;7.682;2023-11-21T08:40:39;8.50;99.90
11650;DHT22;5881;48.522;7.682;2023-11-21T08:43:05;8.50;99.90
11650;DHT22;5881;48.522;7.682;2023-11-21T08:45:31;8.50;99.90
11650;DHT22;5881;48.522;7.682;2023-11-21T08:48:02;8.50;99.90
11650;DHT22;5881;48.522;7.682;2023-11-21T08:50:27;8.50;99.90
11650;DHT22;5881;48.522;7.682;2023-11-21T08:52:53;8.50;99.90
11650;DHT22;5881;48.522;7.682;2023-11-21T08:55:19;8.60;99.90
11650;DHT22;5881;48.522;7.682;2023-11-21T08:57:45;8.60;99.90
11650;DHT22;5881;48.522;7.682;2023-11-21T09:00:12;8.60;99.90
11650;DHT22;5881;48.522;7.682;2023-11-21T09:02:42;8.60;99.90
11650;DHT22;5881;48.522;7.682;2023-11-21T09:05:12;8.70;99.90
11650;DHT22;5881;48.522;7.682;2023-11-21T09:07:39;8.60;99.90
11650;DHT22;5881;48.522;7.682;2023-11-21T09:10:07;8.50;99.90
11650;DHT22;5881;48.522;7.682;2023-11-21T09:12:33;8.60;99.90
11650;DHT22;5881;48.522;7.682;2023-11-21T09:15:01;8.60;99.90
11650;DHT22;5881;48.522;7.682;2023-11-21T09:17:27;8.70;99.90
11650;DHT22;5881;48.522;7.682;2023-11-21T09:19:53;8.70;99.90
11650;DHT22;5881;48.522;7.682;2023-11-21T09:22:19;8.70;99.90
11650;DHT22;5881;48.522;7.682;2023-11-21T09:24:45;8.70;99.90
11650;DHT22;5881;48.522;7.682;2023-11-21T09:27:10;8.70;99.90
11650;DHT22;5881;48.522;7.682;2023-11-21T09:29:36;8.80;99.90
11650;DHT22;5881;48.522;7.682;2023-11-21T09:32:06;8.90;99.90
11650;DHT22;5881;48.522;7.682;2023-11-21T09:34:38;8.90;99.90
11650;DHT22;5881;48.522;7.682;2023-11-21T09:37:04;9.00;99.90
11650;DHT22;5881;48.522;7.682;2023-11-21T09:39:32;9.10;99.90
11650;DHT22;5881;48.522;7.682;2023-11-21T09:42:08;9.10;99.90
11650;DHT22;5881;48.522;7.682;2023-11-21T09:44:54;9.20;99.90
11650;DHT22;5881;48.522;7.682;2023-11-21T09:47:24;9.20;99.90
11650;DHT22;5881;48.522;7.682;2023-11-21T09:49:50;9.40;99.90
11650;DHT22;5881;48.522;7.682;2023-11-21T09:52:26;9.40;99.90
11650;DHT22;5881;48.522;7.682;2023-11-21T09:54:54;9.40;99.90
11650;DHT22;5881;48.522;7.682;2023-11-21T09:57:23;9.70;99.90
11650;DHT22;5881;48.522;7.682;2023-11-21T09:59:51;9.50;99.90
11650;DHT22;5881;48.522;7.682;2023-11-21T10:02:23;9.60;99.90
11650;DHT22;5881;48.522;7.682;2023-11-21T10:04:51;9.60;99.90
11650;DHT22;5881;48.522;7.682;2023-11-21T10:07:18;9.70;99.90
11650;DHT22;5881;48.522;7.682;2023-11-21T10:09:44;9.70;99.90
11650;DHT22;5881;48.522;7.682;2023-11-21T10:12:11;9.70;99.90
11650;DHT22;5881;48.522;7.682;2023-11-21T10:14:41;9.70;99.90
11650;DHT22;5881;48.522;7.682;2023-11-21T10:17:08;9.60;99.90
11650;DHT22;5881;48.522;7.682;2023-11-21T10:19:38;9.70;99.90
11650;DHT22;5881;48.522;7.682;2023-11-21T10:22:05;9.60;99.90
11650;DHT22;5881;48.522;7.682;2023-11-21T10:24:32;9.70;99.90
11650;DHT22;5881;48.522;7.682;2023-11-21T10:26:58;9.70;99.90
11650;DHT22;5881;48.522;7.682;2023-11-21T10:29:25;9.80;99.90
11650;DHT22;5881;48.522;7.682;2023-11-21T10:31:52;9.80;99.90
11650;DHT22;5881;48.522;7.682;2023-11-21T10:34:20;9.80;99.90
11650;DHT22;5881;48.522;7.682;2023-11-21T10:36:46;10.00;99.90
11650;DHT22;5881;48.522;7.682;2023-11-21T10:39:19;10.00;99.90
11650;DHT22;5881;48.522;7.682;2023-11-21T10:41:46;10.20;99.90
11650;DHT22;5881;48.522;7.682;2023-11-21T10:44:14;10.30;1.00
11650;DHT22;5881;48.522;7.682;2023-11-21T10:46:46;10.40;1.00
11650;DHT22;5881;48.522;7.682;2023-11-21T10:49:18;10.50;1.00
11650;DHT22;5881;48.522;7.682;2023-11-21T10:51:45;10.50;1.00
11650;DHT22;5881;48.522;7.682;2023-11-21T10:54:10;10.40;1.00
11650;DHT22;5881;48.522;7.682;2023-11-21T10:56:39;10.50;99.90
11650;DHT22;5881;48.522;7.682;2023-11-21T10:59:09;10.60;89.90
11650;DHT22;5881;48.522;7.682;2023-11-21T11:01:36;10.60;1.00
11650;DHT22;5881;48.522;7.682;2023-11-21T11:04:05;10.60;1.00
11650;DHT22;5881;48.522;7.682;2023-11-21T11:06:32;10.40;1.00
11650;DHT22;5881;48.522;7.682;2023-11-21T11:08:59;10.50;1.00
11650;DHT22;5881;48.522;7.682;2023-11-21T11:11:28;10.60;1.00
11650;DHT22;5881;48.522;7.682;2023-11-21T11:13:55;10.70;1.00
11650;DHT22;5881;48.522;7.682;2023-11-21T11:16:22;10.70;1.00
11650;DHT22;5881;48.522;7.682;2023-11-21T11:18:50;10.70;1.00
11650;DHT22;5881;48.522;7.682;2023-11-21T11:21:48;10.60;1.00
11650;DHT22;5881;48.522;7.682;2023-11-21T11:24:34;10.80;1.00
11650;DHT22;5881;48.522;7.682;2023-11-21T11:29:47;11.20;1.00
11650;DHT22;5881;48.522;7.682;2023-11-21T11:32:58;11.40;1.00
11650;DHT22;5881;48.522;7.682;2023-11-21T11:35:44;11.70;1.00
11650;DHT22;5881;48.522;7.682;2023-11-21T11:38:13;12.50;1.00
11650;DHT22;5881;48.522;7.682;2023-11-21T11:40:45;12.40;1.00
11650;DHT22;5881;48.522;7.682;2023-11-21T11:43:11;12.90;1.00
11650;DHT22;5881;48.522;7.682;2023-11-21T11:45:37;12.60;99.90
11650;DHT22;5881;48.522;7.682;2023-11-21T11:48:07;13.10;99.90
11650;DHT22;5881;48.522;7.682;2023-11-21T11:50:33;12.60;99.90
11650;DHT22;5881;48.522;7.682;2023-11-21T11:53:19;12.30;99.90
11650;DHT22;5881;48.522;7.682;2023-11-21T11:55:46;12.00;99.90
11650;DHT22;5881;48.522;7.682;2023-11-21T11:58:12;11.60;1.00
11650;DHT22;5881;48.522;7.682;2023-11-21T12:00:38;11.50;1.00
11650;DHT22;5881;48.522;7.682;2023-11-21T12:03:07;11.40;1.00
11650;DHT22;5881;48.522;7.682;2023-11-21T12:05:33;11.40;1.00
11650;DHT22;5881;48.522;7.682;2023-11-21T12:08:11;11.20;1.00
11650;DHT22;5881;48.522;7.682;2023-11-21T12:10:38;11.40;1.00
11650;DHT22;5881;48.522;7.682;2023-11-21T12:13:09;11.20;1.00
11650;DHT22;5881;48.522;7.682;2023-11-21T12:15:37;11.10;1.00
11650;DHT22;5881;48.522;7.682;2023-11-21T12:18:04;11.20;1.00
11650;DHT22;5881;48.522;7.682;2023-11-21T12:20:30;11.10;1.00
11650;DHT22;5881;48.522;7.682;2023-11-21T12:22:58;11.20;1.00
11650;DHT22;5881;48.522;7.682;2023-11-21T12:25:29;11.40;1.00
11650;DHT22;5881;48.522;7.682;2023-11-21T12:27:57;11.10;1.00
11650;DHT22;5881;48.522;7.682;2023-11-21T12:30:27;11.10;1.00
11650;DHT22;5881;48.522;7.682;2023-11-21T12:32:56;11.00;1.00
11650;DHT22;5881;48.522;7.682;2023-11-21T12:35:24;11.20;1.00
11650;DHT22;5881;48.522;7.682;2023-11-21T12:37:51;11.20;1.00
11650;DHT22;5881;48.522;7.682;2023-11-21T12:40:18;11.20;1.00
11650;DHT22;5881;48.522;7.682;2023-11-21T12:42:47;11.10;1.00
11650;DHT22;5881;48.522;7.682;2023-11-21T12:47:48;11.20;1.00
11650;DHT22;5881;48.522;7.682;2023-11-21T12:50:15;11.30;1.00
11650;DHT22;5881;48.522;7.682;2023-11-21T12:52:45;11.20;1.00
11650;DHT22;5881;48.522;7.682;2023-11-21T12:55:17;11.10;1.00
11650;DHT22;5881;48.522;7.682;2023-11-21T12:57:54;11.20;1.00
11650;DHT22;5881;48.522;7.682;2023-11-21T13:00:54;11.20;1.00
11650;DHT22;5881;48.522;7.682;2023-11-21T13:03:14;11.10;1.00
11650;DHT22;5881;48.522;7.682;2023-11-21T13:05:47;11.30;1.00
11650;DHT22;5881;48.522;7.682;2023-11-21T13:08:16;11.20;1.00
11650;DHT22;5881;48.522;7.682;2023-11-21T13:10:45;11.00;1.00
11650;DHT22;5881;48.522;7.682;2023-11-21T13:13:14;11.00;1.00
11650;DHT22;5881;48.522;7.682;2023-11-21T13:18:16;10.80;1.00
11650;DHT22;5881;48.522;7.682;2023-11-21T13:20:42;10.80;1.00
11650;DHT22;5881;48.522;7.682;2023-11-21T13:23:10;10.70;1.00
11650;DHT22;5881;48.522;7.682;2023-11-21T13:25:38;10.80;1.00
11650;DHT22;5881;48.522;7.682;2023-11-21T13:28:06;10.80;1.00
11650;DHT22;5881;48.522;7.682;2023-11-21T13:30:32;10.80;1.00
11650;DHT22;5881;48.522;7.682;2023-11-21T13:33:02;10.80;1.00
11650;DHT22;5881;48.522;7.682;2023-11-21T13:35:32;10.80;1.00
11650;DHT22;5881;48.522;7.682;2023-11-21T13:38:05;10.90;1.00
11650;DHT22;5881;48.522;7.682;2023-11-21T13:40:32;11.10;1.00
11650;DHT22;5881;48.522;7.682;2023-11-21T13:43:00;11.20;1.00
11650;DHT22;5881;48.522;7.682;2023-11-21T13:45:29;11.20;1.00
11650;DHT22;5881;48.522;7.682;2023-11-21T13:47:56;11.30;1.00
11650;DHT22;5881;48.522;7.682;2023-11-21T13:50:27;11.20;1.00
11650;DHT22;5881;48.522;7.682;2023-11-21T13:53:03;11.00;1.00
11650;DHT22;5881;48.522;7.682;2023-11-21T13:55:36;11.10;1.00
11650;DHT22;5881;48.522;7.682;2023-11-21T13:58:02;11.10;1.00
11650;DHT22;5881;48.522;7.682;2023-11-21T14:00:34;11.10;1.00
11650;DHT22;5881;48.522;7.682;2023-11-21T14:03:17;11.10;1.00
11650;DHT22;5881;48.522;7.682;2023-11-21T14:05:47;11.00;1.00
11650;DHT22;5881;48.522;7.682;2023-11-21T14:08:19;11.00;1.00
11650;DHT22;5881;48.522;7.682;2023-11-21T14:10:49;10.80;1.00
11650;DHT22;5881;48.522;7.682;2023-11-21T14:13:26;10.70;1.00
11650;DHT22;5881;48.522;7.682;2023-11-21T14:15:53;10.80;1.00
11650;DHT22;5881;48.522;7.682;2023-11-21T14:18:27;10.80;1.00
11650;DHT22;5881;48.522;7.682;2023-11-21T14:21:01;10.70;1.00
11650;DHT22;5881;48.522;7.682;2023-11-21T14:23:27;10.80;1.00
11650;DHT22;5881;48.522;7.682;2023-11-21T14:25:54;10.80;1.00
11650;DHT22;5881;48.522;7.682;2023-11-21T14:28:19;10.70;1.00
11650;DHT22;5881;48.522;7.682;2023-11-21T14:30:48;10.80;1.00
11650;DHT22;5881;48.522;7.682;2023-11-21T14:33:14;10.70;1.00
11650;DHT22;5881;48.522;7.682;2023-11-21T14:35:42;10.60;1.00
11650;DHT22;5881;48.522;7.682;2023-11-21T14:38:08;10.60;1.00
11650;DHT22;5881;48.522;7.682;2023-11-21T14:40:35;10.60;1.00
11650;DHT22;5881;48.522;7.682;2023-11-21T14:43:02;10.50;1.00
11650;DHT22;5881;48.522;7.682;2023-11-21T14:45:31;10.40;1.00
11650;DHT22;5881;48.522;7.682;2023-11-21T14:47:57;10.50;1.00
11650;DHT22;5881;48.522;7.682;2023-11-21T14:50:35;10.40;1.00
11650;DHT22;5881;48.522;7.682;2023-11-21T14:53:10;10.40;1.00
11650;DHT22;5881;48.522;7.682;2023-11-21T14:55:38;10.30;1.00
11650;DHT22;5881;48.522;7.682;2023-11-21T14:58:30;10.30;1.00
11650;DHT22;5881;48.522;7.682;2023-11-21T15:00:57;10.30;1.00
11650;DHT22;5881;48.522;7.682;2023-11-21T15:03:27;10.30;1.00
11650;DHT22;5881;48.522;7.682;2023-11-21T15:06:00;10.30;1.00
11650;DHT22;5881;48.522;7.682;2023-11-21T15:08:44;10.30;1.00
11650;DHT22;5881;48.522;7.682;2023-11-21T15:11:09;10.20;1.00
11650;DHT22;5881;48.522;7.682;2023-11-21T15:13:40;10.20;1.00
11650;DHT22;5881;48.522;7.682;2023-11-21T15:16:07;10.00;1.00
11650;DHT22;5881;48.522;7.682;2023-11-21T15:18:34;9.80;99.90
11650;DHT22;5881;48.522;7.682;2023-11-21T15:21:01;9.70;1.00
11650;DHT22;5881;48.522;7.682;2023-11-21T15:23:29;9.70;1.00
11650;DHT22;5881;48.522;7.682;2023-11-21T15:25:56;9.50;1.00
11650;DHT22;5881;48.522;7.682;2023-11-21T15:28:23;9.50;1.00
11650;DHT22;5881;48.522;7.682;2023-11-21T15:30:50;9.50;99.90
11650;DHT22;5881;48.522;7.682;2023-11-21T15:33:17;9.40;1.00
11650;DHT22;5881;48.522;7.682;2023-11-21T15:35:43;9.40;1.00
11650;DHT22;5881;48.522;7.682;2023-11-21T15:38:08;9.60;1.00
11650;DHT22;5881;48.522;7.682;2023-11-21T15:40:34;9.50;29.00
11650;DHT22;5881;48.522;7.682;2023-11-21T15:43:00;9.50;99.90
11650;DHT22;5881;48.522;7.682;2023-11-21T15:45:28;9.40;99.90
11650;DHT22;5881;48.522;7.682;2023-11-21T15:47:53;9.40;99.90
11650;DHT22;5881;48.522;7.682;2023-11-21T15:50:19;9.40;99.90
11650;DHT22;5881;48.522;7.682;2023-11-21T15:52:45;9.30;1.00
11650;DHT22;5881;48.522;7.682;2023-11-21T15:55:11;9.40;1.00
11650;DHT22;5881;48.522;7.682;2023-11-21T15:57:37;9.30;1.00
11650;DHT22;5881;48.522;7.682;2023-11-21T16:00:03;9.30;1.00
11650;DHT22;5881;48.522;7.682;2023-11-21T16:02:36;9.30;1.00
11650;DHT22;5881;48.522;7.682;2023-11-21T16:05:04;9.30;1.00
11650;DHT22;5881;48.522;7.682;2023-11-21T16:07:30;9.20;1.00
11650;DHT22;5881;48.522;7.682;2023-11-21T16:09:56;9.30;1.00
11650;DHT22;5881;48.522;7.682;2023-11-21T16:12:22;9.20;1.00
11650;DHT22;5881;48.522;7.682;2023-11-21T16:14:48;9.20;41.20
11650;DHT22;5881;48.522;7.682;2023-11-21T16:17:15;9.20;99.90